Time;durP1;ratioP1;P1;durP2;ratioP2;P2;SDS_P1;SDS_P2;PMS_P1;PMS_P2;Temp;Humidity;BMP_temperature;BMP_pressure;BME280_temperature;BME280_humidity;BME280_pressure;Samples;Min_cycle;Max_cycle;Signal;HPM_P1;HPM_P2
2023/12/16 00:00:32;;;;;;;;;;;;;;;;;;5114766;28;19988;-50
2023/12/16 00:02:58;;;;;;;;;;;;;;;;;;5114793;28;20382;-53
2023/12/16 00:05:25;;;;;;;;;;;;;;;;;;5114820;28;20360;-52
2023/12/16 00:07:51;;;;;;;;;;;;;;;;;;5114400;28;20390;-53
2023/12/16 00:10:17;;;;;;;;;;;;;;;;;;5114146;28;19950;-52
2023/12/16 00:12:43;;;;;;;;;;;;;;;;;;5114513;28;20447;-53
2023/12/16 00:15:10;;;;;;;;;;;;;;;;;;5114077;28;20325;-52
2023/12/16 00:17:36;;;;;;;;;;;;;;;;;;5114277;28;19968;-51
2023/12/16 00:20:03;;;;;;;;;;;;;;;;;;5114161;28;19923;-53
2023/12/16 00:22:30;;;;;;;;;;;;;;;;;;5114355;28;20356;-52
2023/12/16 00:24:56;;;;;;;;;;;;;;;;;;5114101;28;19924;-52
2023/12/16 00:27:22;;;;;;;;;;;;;;;;;;5114165;28;19924;-51
2023/12/16 00:29:48;;;;;;;;;;;;;;;;;;5113962;28;19928;-52
2023/12/16 00:32:15;;;;;;;;;;;;;;;;;;5114392;28;20422;-52
2023/12/16 00:34:41;;;;;;;;;;;;;;;;;;5113818;28;20432;-52
2023/12/16 00:37:08;;;;;;;;;;;;;;;;;;5113837;28;19935;-52
2023/12/16 00:39:34;;;;;;;;;;;;;;;;;;5113713;28;19924;-53
2023/12/16 00:42:00;;;;;;;;;;;;;;;;;;5113889;28;19923;-53
2023/12/16 00:44:26;;;;;;;;;;;;;;;;;;5113553;28;19953;-52
2023/12/16 00:46:53;;;;;;;;;;;;;;;;;;5113920;28;19924;-53
2023/12/16 00:49:19;;;;;;;;;;;;;;;;;;5113417;28;19977;-53
2023/12/16 00:51:45;;;;;;;;;;;;;;;;;;5113922;28;19937;-52
2023/12/16 00:54:11;;;;;;;;;;;;;;;;;;5113416;28;19931;-52
2023/12/16 00:56:38;;;;;;;;;;;;;;;;;;5113768;28;19977;-52
2023/12/16 00:59:04;;;;;;;;;;;;;;;;;;5113649;28;19924;-53
2023/12/16 01:01:30;;;;;;;;;;;;;;;;;;5113812;28;20432;-53
2023/12/16 01:03:56;;;;;;;;;;;;;;;;;;5113818;28;20259;-53
2023/12/16 01:06:22;;;;;;;;;;;;;;;;;;5113709;28;19928;-52
2023/12/16 01:08:49;;;;;;;;;;;;;;;;;;5112789;28;19984;-51
2023/12/16 01:11:15;;;;;;;;;;;;;;;;;;5113549;28;19972;-53
2023/12/16 01:13:41;;;;;;;;;;;;;;;;;;5113517;28;19923;-52
2023/12/16 01:16:07;;;;;;;;;;;;;;;;;;5113293;28;19977;-52
2023/12/16 01:18:33;;;;;;;;;;;;;;;;;;5113308;28;19924;-53
2023/12/16 01:21:00;;;;;;;;;;;;;;;;;;5113409;28;19984;-52
2023/12/16 01:23:26;;;;;;;;;;;;;;;;;;5113518;28;20015;-52
2023/12/16 01:25:53;;;;;;;;;;;;;;;;;;5113503;28;19974;-53
2023/12/16 01:28:19;;;;;;;;;;;;;;;;;;5113252;28;20000;-52
2023/12/16 01:30:45;;;;;;;;;;;;;;;;;;5113354;28;19931;-53
2023/12/16 01:33:12;;;;;;;;;;;;;;;;;;5113519;28;19967;-52
2023/12/16 01:35:39;;;;;;;;;;;;;;;;;;5113320;28;19928;-51
2023/12/16 01:38:05;;;;;;;;;;;;;;;;;;5112697;28;20333;-52
2023/12/16 01:40:31;;;;;;;;;;;;;;;;;;5113038;28;20555;-53
2023/12/16 01:42:57;;;;;;;;;;;;;;;;;;5113196;28;20004;-53
2023/12/16 01:45:23;;;;;;;;;;;;;;;;;;5112866;28;19923;-52
2023/12/16 01:47:50;;;;;;;;;;;;;;;;;;5116692;28;19973;-52
2023/12/16 01:50:16;;;;;;;;;;;;;;;;;;5116983;28;19923;-52
2023/12/16 01:52:42;;;;;;;;;;;;;;;;;;5117426;28;20434;-52
2023/12/16 01:55:08;;;;;;;;;;;;;;;;;;5116883;28;19928;-52
2023/12/16 01:57:34;;;;;;;;;;;;;;;;;;5117149;28;19931;-52
2023/12/16 02:00:03;;;;;;;;;;;;;;;;;;5117138;28;19937;-53
2023/12/16 02:02:29;;;;;;;;;;;;;;;;;;5117327;28;19923;-52
2023/12/16 02:04:55;;;;;;;;;;;;;;;;;;5117004;28;19923;-51
2023/12/16 02:07:21;;;;;;;;;;;;;;;;;;5116825;28;19931;-52
2023/12/16 02:09:47;;;;;;;;;;;;;;;;;;5115992;28;20252;-52
2023/12/16 02:12:14;;;;;;;;;;;;;;;;;;5116848;28;19924;-52
2023/12/16 02:14:40;;;;;;;;;;;;;;;;;;5116551;28;19927;-52
2023/12/16 02:17:06;;;;;;;;;;;;;;;;;;5116694;28;19927;-52
2023/12/16 02:19:32;;;;;;;;;;;;;;;;;;5116623;28;19931;-52
2023/12/16 02:21:59;;;;;;;;;;;;;;;;;;5116757;28;19930;-52
2023/12/16 02:24:26;;;;;;;;;;;;;;;;;;5116675;28;19967;-52
2023/12/16 02:26:52;;;;;;;;;;;;;;;;;;5116558;28;19923;-52
2023/12/16 02:29:18;;;;;;;;;;;;;;;;;;5116283;28;19924;-53
2023/12/16 02:31:44;;;;;;;;;;;;;;;;;;5116814;28;19973;-53
2023/12/16 02:34:11;;;;;;;;;;;;;;;;;;5116590;28;19927;-52
2023/12/16 02:36:37;;;;;;;;;;;;;;;;;;5116281;28;19931;-52
2023/12/16 02:39:04;;;;;;;;;;;;;;;;;;5115840;28;19923;-52
2023/12/16 02:41:30;;;;;;;;;;;;;;;;;;5116118;28;19928;-53
2023/12/16 02:43:56;;;;;;;;;;;;;;;;;;5115755;28;20405;-52
2023/12/16 02:46:22;;;;;;;;;;;;;;;;;;5115857;28;19927;-52
2023/12/16 02:48:49;;;;;;;;;;;;;;;;;;5115816;28;19924;-52
2023/12/16 02:51:15;;;;;;;;;;;;;;;;;;5116027;28;19923;-52
2023/12/16 02:53:41;;;;;;;;;;;;;;;;;;5116086;28;19927;-52
2023/12/16 02:56:07;;;;;;;;;;;;;;;;;;5115782;28;19927;-52
2023/12/16 02:58:33;;;;;;;;;;;;;;;;;;5115507;28;19928;-52
2023/12/16 03:00:59;;;;;;;;;;;;;;;;;;5116048;28;19973;-51
2023/12/16 03:03:26;;;;;;;;;;;;;;;;;;5116090;28;19931;-53
2023/12/16 03:05:52;;;;;;;;;;;;;;;;;;5115826;28;20383;-52
2023/12/16 03:08:18;;;;;;;;;;;;;;;;;;5115703;28;19973;-52
2023/12/16 03:10:44;;;;;;;;;;;;;;;;;;5115257;28;19923;-52
2023/12/16 03:13:10;;;;;;;;;;;;;;;;;;5115430;28;20367;-52
2023/12/16 03:15:37;;;;;;;;;;;;;;;;;;5115435;28;19931;-52
2023/12/16 03:18:03;;;;;;;;;;;;;;;;;;5115553;28;19933;-52
2023/12/16 03:20:29;;;;;;;;;;;;;;;;;;5115462;28;19924;-53
2023/12/16 03:22:55;;;;;;;;;;;;;;;;;;5115686;27;20416;-52
2023/12/16 03:25:21;;;;;;;;;;;;;;;;;;5115597;28;19945;-52
2023/12/16 03:27:48;;;;;;;;;;;;;;;;;;5115638;28;19931;-53
2023/12/16 03:30:14;;;;;;;;;;;;;;;;;;5115162;28;19930;-51
2023/12/16 03:32:40;;;;;;;;;;;;;;;;;;5114993;28;19949;-53
2023/12/16 03:35:06;;;;;;;;;;;;;;;;;;5115138;28;19967;-52
2023/12/16 03:37:32;;;;;;;;;;;;;;;;;;5115137;28;19981;-53
2023/12/16 03:39:58;;;;;;;;;;;;;;;;;;5114648;27;19923;-51
2023/12/16 03:42:25;;;;;;;;;;;;;;;;;;5115103;28;19923;-52
2023/12/16 03:44:51;;;;;;;;;;;;;;;;;;5114685;28;19927;-51
2023/12/16 03:47:17;;;;;;;;;;;;;;;;;;5115228;28;19923;-53
2023/12/16 03:49:43;;;;;;;;;;;;;;;;;;5114694;28;19927;-52
2023/12/16 03:52:11;;;;;;;;;;;;;;;;;;5115051;28;20306;-53
2023/12/16 03:54:38;;;;;;;;;;;;;;;;;;5114967;27;20036;-53
2023/12/16 03:57:04;;;;;;;;;;;;;;;;;;5114224;28;20354;-52
2023/12/16 03:59:30;;;;;;;;;;;;;;;;;;5109142;28;20444;-53
2023/12/16 04:01:56;;;;;;;;;;;;;;;;;;5094138;28;20027;-53
2023/12/16 04:04:22;;;;;;;;;;;;;;;;;;5094346;28;19924;-52
2023/12/16 04:06:48;;;;;;;;;;;;;;;;;;5094111;28;19931;-51
2023/12/16 04:09:15;;;;;;;;;;;;;;;;;;5092784;28;19928;-53
2023/12/16 04:11:41;;;;;;;;;;;;;;;;;;5094005;28;19958;-53
2023/12/16 04:14:07;;;;;;;;;;;;;;;;;;5093902;28;19928;-52
2023/12/16 04:16:33;;;;;;;;;;;;;;;;;;5094036;28;19950;-53
2023/12/16 04:18:59;;;;;;;;;;;;;;;;;;5093768;28;19928;-52
2023/12/16 04:21:26;;;;;;;;;;;;;;;;;;5094043;28;19928;-51
2023/12/16 04:23:52;;;;;;;;;;;;;;;;;;5094148;28;19945;-53
2023/12/16 04:26:18;;;;;;;;;;;;;;;;;;5094039;28;19924;-52
2023/12/16 04:28:44;;;;;;;;;;;;;;;;;;5094015;28;19974;-53
2023/12/16 04:31:10;;;;;;;;;;;;;;;;;;5093527;28;19924;-52
2023/12/16 04:33:37;;;;;;;;;;;;;;;;;;5093367;28;20010;-51
2023/12/16 04:36:03;;;;;;;;;;;;;;;;;;5093647;28;19931;-52
2023/12/16 04:38:29;;;;;;;;;;;;;;;;;;5093622;28;19970;-50
2023/12/16 04:40:55;;;;;;;;;;;;;;;;;;5093194;28;19975;-53
2023/12/16 04:43:21;;;;;;;;;;;;;;;;;;5093624;28;19930;-52
2023/12/16 04:45:47;;;;;;;;;;;;;;;;;;5093366;28;19932;-52
2023/12/16 04:48:14;;;;;;;;;;;;;;;;;;5093470;28;19931;-52
2023/12/16 04:50:40;;;;;;;;;;;;;;;;;;5092836;28;19924;-52
2023/12/16 04:53:07;;;;;;;;;;;;;;;;;;5093100;28;19928;-53
2023/12/16 04:55:33;;;;;;;;;;;;;;;;;;5093321;28;19924;-52
2023/12/16 04:57:59;;;;;;;;;;;;;;;;;;5092919;28;19954;-51
2023/12/16 05:00:26;;;;;;;;;;;;;;;;;;5107221;28;19924;-53
2023/12/16 05:02:52;;;;;;;;;;;;;;;;;;5113543;28;19928;-52
2023/12/16 05:05:18;;;;;;;;;;;;;;;;;;5113641;28;19923;-52
2023/12/16 05:07:44;;;;;;;;;;;;;;;;;;5113687;28;19993;-53
2023/12/16 05:10:11;;;;;;;;;;;;;;;;;;5113032;28;19928;-52
2023/12/16 05:12:37;;;;;;;;;;;;;;;;;;5113515;28;19967;-53
2023/12/16 05:15:03;;;;;;;;;;;;;;;;;;5113170;28;19969;-53
2023/12/16 05:17:30;;;;;;;;;;;;;;;;;;5113618;28;19973;-53
2023/12/16 05:19:56;;;;;;;;;;;;;;;;;;5113055;28;19931;-52
2023/12/16 05:22:22;;;;;;;;;;;;;;;;;;5113134;28;20018;-53
2023/12/16 05:24:48;;;;;;;;;;;;;;;;;;5113462;28;20295;-53
2023/12/16 05:27:14;;;;;;;;;;;;;;;;;;5113517;28;19924;-53
2023/12/16 05:29:40;;;;;;;;;;;;;;;;;;5113350;28;19973;-52
2023/12/16 05:32:07;;;;;;;;;;;;;;;;;;5112804;28;19923;-53
2023/12/16 05:34:33;;;;;;;;;;;;;;;;;;5113246;28;19924;-52
2023/12/16 05:36:59;;;;;;;;;;;;;;;;;;5113230;28;19923;-53
2023/12/16 05:39:26;;;;;;;;;;;;;;;;;;5112764;28;19924;-51
2023/12/16 05:41:52;;;;;;;;;;;;;;;;;;5113229;28;19927;-52
2023/12/16 05:44:18;;;;;;;;;;;;;;;;;;5113049;28;19924;-53
2023/12/16 05:46:46;;;;;;;;;;;;;;;;;;5112625;28;21270;-52
2023/12/16 05:49:12;;;;;;;;;;;;;;;;;;5113120;28;19934;-52
2023/12/16 05:51:39;;;;;;;;;;;;;;;;;;5113064;28;19927;-52
2023/12/16 05:54:05;;;;;;;;;;;;;;;;;;5113350;28;19924;-53
2023/12/16 05:56:31;;;;;;;;;;;;;;;;;;5113369;28;19980;-53
2023/12/16 05:58:58;;;;;;;;;;;;;;;;;;5113035;28;19959;-52
2023/12/16 06:01:24;;;;;;;;;;;;;;;;;;5112430;28;19924;-52
2023/12/16 06:03:50;;;;;;;;;;;;;;;;;;5112910;28;20362;-53
2023/12/16 06:06:16;;;;;;;;;;;;;;;;;;5112808;28;20325;-53
2023/12/16 06:08:42;;;;;;;;;;;;;;;;;;5112783;28;20054;-53
2023/12/16 06:11:08;;;;;;;;;;;;;;;;;;5112499;28;19935;-52
2023/12/16 06:13:34;;;;;;;;;;;;;;;;;;5112932;28;19924;-52
2023/12/16 06:16:01;;;;;;;;;;;;;;;;;;5112722;28;19977;-52
2023/12/16 06:18:37;;;;;;;;;;;;;;;;;;5112978;28;19962;-53
2023/12/16 06:21:05;;;;;;;;;;;;;;;;;;5112791;28;19934;-52
2023/12/16 06:23:32;;;;;;;;;;;;;;;;;;5112616;28;19924;-53
2023/12/16 06:25:58;;;;;;;;;;;;;;;;;;5112934;28;19973;-52
2023/12/16 06:28:24;;;;;;;;;;;;;;;;;;5112799;28;20008;-53
2023/12/16 06:30:50;;;;;;;;;;;;;;;;;;5112347;28;19923;-53
2023/12/16 06:33:16;;;;;;;;;;;;;;;;;;5114858;28;20034;-53
2023/12/16 06:35:43;;;;;;;;;;;;;;;;;;5116436;28;19928;-52
2023/12/16 06:38:09;;;;;;;;;;;;;;;;;;5116281;28;19923;-53
2023/12/16 06:40:36;;;;;;;;;;;;;;;;;;5116066;28;19924;-52
2023/12/16 06:43:02;;;;;;;;;;;;;;;;;;5116325;28;19924;-53
2023/12/16 06:45:28;;;;;;;;;;;;;;;;;;5116071;28;19935;-52
2023/12/16 06:47:54;;;;;;;;;;;;;;;;;;5116078;28;19969;-53
2023/12/16 06:50:20;;;;;;;;;;;;;;;;;;5116059;28;20007;-52
2023/12/16 06:52:46;;;;;;;;;;;;;;;;;;5116233;28;19924;-52
2023/12/16 06:55:13;;;;;;;;;;;;;;;;;;5116220;28;19928;-52
2023/12/16 06:57:39;;;;;;;;;;;;;;;;;;5116027;28;20015;-53
2023/12/16 07:00:06;;;;;;;;;;;;;;;;;;5115141;28;20018;-53
2023/12/16 07:02:32;;;;;;;;;;;;;;;;;;5115415;28;19923;-52
2023/12/16 07:04:58;;;;;;;;;;;;;;;;;;5115128;28;20036;-53
2023/12/16 07:07:28;;;;;;;;;;;;;;;;;;5115734;28;19930;-52
2023/12/16 07:09:54;;;;;;;;;;;;;;;;;;5115504;28;20359;-53
2023/12/16 07:12:20;;;;;;;;;;;;;;;;;;5115577;28;19923;-53
2023/12/16 07:14:47;;;;;;;;;;;;;;;;;;5115449;28;19972;-53
2023/12/16 07:17:13;;;;;;;;;;;;;;;;;;5115718;28;19980;-52
2023/12/16 07:19:39;;;;;;;;;;;;;;;;;;5115473;28;19973;-52
2023/12/16 07:22:06;;;;;;;;;;;;;;;;;;5115627;28;19962;-52
2023/12/16 07:24:32;;;;;;;;;;;;;;;;;;5115695;27;20018;-52
2023/12/16 07:26:58;;;;;;;;;;;;;;;;;;5115312;28;19985;-52
2023/12/16 07:29:25;;;;;;;;;;;;;;;;;;5115335;28;19931;-52
2023/12/16 07:31:51;;;;;;;;;;;;;;;;;;5115046;28;20432;-53
2023/12/16 07:34:17;;;;;;;;;;;;;;;;;;5115324;27;19963;-53
2023/12/16 07:36:43;;;;;;;;;;;;;;;;;;5115210;28;19981;-50
2023/12/16 07:39:09;;;;;;;;;;;;;;;;;;5114952;27;19981;-53
2023/12/16 07:41:36;;;;;;;;;;;;;;;;;;5114639;28;19967;-51
2023/12/16 07:44:02;;;;;;;;;;;;;;;;;;5114682;28;19973;-51
2023/12/16 07:52:22;;;;;;;;;;;;;;;;;;5114721;28;19977;-52
2023/12/16 07:54:48;;;;;;;;;;;;;;;;;;5113124;28;19923;-51
2023/12/16 07:57:14;;;;;;;;;;;;;;;;;;5114883;28;20287;-52
2023/12/16 07:59:40;;;;;;;;;;;;;;;;;;5114873;28;19969;-51
2023/12/16 08:02:08;;;;;;;;;;;;;;;;;;5114689;28;19931;-52
2023/12/16 08:04:35;;;;;;;;;;;;;;;;;;5114666;28;19924;-52
2023/12/16 08:07:01;;;;;;;;;;;;;;;;;;5114557;28;20394;-51
2023/12/16 08:09:27;;;;;;;;;;;;;;;;;;5114379;28;19927;-52
2023/12/16 08:11:58;;;;;;;;;;;;;;;;;;5114141;28;20193;-52
2023/12/16 08:14:24;;;;;;;;;;;;;;;;;;5114209;28;19924;-52
2023/12/16 08:16:50;;;;;;;;;;;;;;;;;;5114420;28;20341;-53
2023/12/16 08:19:16;;;;;;;;;;;;;;;;;;5114389;28;20355;-51
2023/12/16 08:21:42;;;;;;;;;;;;;;;;;;5114251;28;20295;-53
2023/12/16 08:24:08;;;;;;;;;;;;;;;;;;5114400;27;20408;-52
2023/12/16 08:26:35;;;;;;;;;;;;;;;;;;5114414;28;19963;-52
2023/12/16 08:29:01;;;;;;;;;;;;;;;;;;5114037;28;20427;-52
2023/12/16 08:31:27;;;;;;;;;;;;;;;;;;5114074;28;20367;-51
2023/12/16 08:33:53;;;;;;;;;;;;;;;;;;5114287;28;19924;-52
2023/12/16 08:36:19;;;;;;;;;;;;;;;;;;5114295;28;20002;-52
2023/12/16 08:38:46;;;;;;;;;;;;;;;;;;5113932;28;19924;-52
2023/12/16 08:41:12;;;;;;;;;;;;;;;;;;5113558;28;20299;-53
2023/12/16 08:43:38;;;;;;;;;;;;;;;;;;5113989;28;19923;-52
2023/12/16 08:46:04;;;;;;;;;;;;;;;;;;5113305;28;20321;-52
2023/12/16 08:48:31;;;;;;;;;;;;;;;;;;5113944;28;19931;-52
2023/12/16 08:50:57;;;;;;;;;;;;;;;;;;5113641;28;19935;-50
2023/12/16 08:53:23;;;;;;;;;;;;;;;;;;5113718;28;19934;-52
2023/12/16 08:55:50;;;;;;;;;;;;;;;;;;5113455;28;19927;-52
2023/12/16 08:58:16;;;;;;;;;;;;;;;;;;5113874;28;20359;-51
2023/12/16 09:00:42;;;;;;;;;;;;;;;;;;5113611;28;19930;-52
2023/12/16 09:03:08;;;;;;;;;;;;;;;;;;5113761;28;20337;-52
2023/12/16 09:05:36;;;;;;;;;;;;;;;;;;5113828;28;19931;-52
2023/12/16 09:08:02;;;;;;;;;;;;;;;;;;5113257;28;19984;-52
2023/12/16 09:10:28;;;;;;;;;;;;;;;;;;5113266;28;19924;-51
2023/12/16 09:12:55;;;;;;;;;;;;;;;;;;5112949;28;19924;-52
2023/12/16 09:15:21;;;;;;;;;;;;;;;;;;5113295;28;19931;-52
2023/12/16 09:17:47;;;;;;;;;;;;;;;;;;5113652;28;19924;-52
2023/12/16 09:20:13;;;;;;;;;;;;;;;;;;5113409;28;20360;-52
2023/12/16 09:22:39;;;;;;;;;;;;;;;;;;5113393;28;19931;-51
2023/12/16 09:25:08;;;;;;;;;;;;;;;;;;5113572;28;19924;-52
2023/12/16 09:27:34;;;;;;;;;;;;;;;;;;5113585;28;20364;-52
2023/12/16 09:30:00;;;;;;;;;;;;;;;;;;5113456;28;20383;-52
2023/12/16 09:32:27;;;;;;;;;;;;;;;;;;5113122;28;20364;-52
2023/12/16 09:34:53;;;;;;;;;;;;;;;;;;5113384;28;19924;-51
2023/12/16 09:37:19;;;;;;;;;;;;;;;;;;5113356;28;19935;-52
2023/12/16 09:39:45;;;;;;;;;;;;;;;;;;5112661;28;20291;-52
2023/12/16 09:42:13;;;;;;;;;;;;;;;;;;5113238;28;19981;-52
2023/12/16 09:44:39;;;;;;;;;;;;;;;;;;5113010;28;19977;-52
2023/12/16 09:47:05;;;;;;;;;;;;;;;;;;5113025;28;20387;-52
2023/12/16 09:49:31;;;;;;;;;;;;;;;;;;5112695;28;20625;-52
2023/12/16 09:51:58;;;;;;;;;;;;;;;;;;5112580;28;19923;-52
2023/12/16 09:54:24;;;;;;;;;;;;;;;;;;5112711;28;19931;-52
2023/12/16 09:56:50;;;;;;;;;;;;;;;;;;5113331;28;20403;-51
2023/12/16 09:59:16;;;;;;;;;;;;;;;;;;5112991;28;19963;-51
2023/12/16 10:01:43;;;;;;;;;;;;;;;;;;5112943;28;19946;-52
2023/12/16 10:04:09;;;;;;;;;;;;;;;;;;5113377;28;20369;-52
2023/12/16 10:06:35;;;;;;;;;;;;;;;;;;5113164;28;19931;-52
2023/12/16 10:09:01;;;;;;;;;;;;;;;;;;5115723;28;19982;-53
2023/12/16 10:11:28;;;;;;;;;;;;;;;;;;5116095;28;19980;-52
2023/12/16 10:13:55;;;;;;;;;;;;;;;;;;5116361;28;19973;-51
2023/12/16 10:16:22;;;;;;;;;;;;;;;;;;5116762;27;20016;-52
2023/12/16 10:18:48;;;;;;;;;;;;;;;;;;5116438;28;19935;-52
2023/12/16 10:21:14;;;;;;;;;;;;;;;;;;5116372;28;19934;-52
2023/12/16 10:23:44;;;;;;;;;;;;;;;;;;5116725;27;19992;-52
2023/12/16 10:26:10;;;;;;;;;;;;;;;;;;5116708;28;20355;-53
2023/12/16 10:28:37;;;;;;;;;;;;;;;;;;5116351;28;20359;-52
2023/12/16 10:31:03;;;;;;;;;;;;;;;;;;5115742;28;19935;-52
2023/12/16 10:33:29;;;;;;;;;;;;;;;;;;5116460;27;20288;-51
2023/12/16 10:35:55;;;;;;;;;;;;;;;;;;5116431;28;20010;-52
2023/12/16 10:38:21;;;;;;;;;;;;;;;;;;5116145;27;19924;-52
2023/12/16 10:40:48;;;;;;;;;;;;;;;;;;5116193;28;19924;-52
2023/12/16 10:43:14;;;;;;;;;;;;;;;;;;5116211;28;20425;-52
2023/12/16 10:45:40;;;;;;;;;;;;;;;;;;5116081;28;19927;-52
2023/12/16 10:48:06;;;;;;;;;;;;;;;;;;5116329;28;19924;-51
2023/12/16 10:50:32;;;;;;;;;;;;;;;;;;5116228;28;19923;-51
2023/12/16 10:52:58;;;;;;;;;;;;;;;;;;5115738;28;19927;-52
2023/12/16 10:55:24;;;;;;;;;;;;;;;;;;5116153;28;19924;-53
2023/12/16 10:57:51;;;;;;;;;;;;;;;;;;5116143;28;19928;-51
2023/12/16 11:00:17;;;;;;;;;;;;;;;;;;5116127;28;20018;-52
2023/12/16 11:02:43;;;;;;;;;;;;;;;;;;5116058;28;19970;-52
2023/12/16 11:05:09;;;;;;;;;;;;;;;;;;5115936;28;19928;-52
2023/12/16 11:07:35;;;;;;;;;;;;;;;;;;5115560;28;20279;-52
2023/12/16 11:10:02;;;;;;;;;;;;;;;;;;5115418;28;19928;-52
2023/12/16 11:12:28;;;;;;;;;;;;;;;;;;5114977;28;19946;-52
2023/12/16 11:14:55;;;;;;;;;;;;;;;;;;5114826;27;19928;-52
2023/12/16 11:17:21;;;;;;;;;;;;;;;;;;5115890;28;20351;-52
2023/12/16 11:19:47;;;;;;;;;;;;;;;;;;5115105;28;19924;-51
2023/12/16 11:22:16;;;;;;;;;;;;;;;;;;5115731;28;19934;-52
2023/12/16 11:24:43;;;;;;;;;;;;;;;;;;5115663;28;19928;-52
2023/12/16 11:27:09;;;;;;;;;;;;;;;;;;5115680;28;20269;-52
2023/12/16 11:29:35;;;;;;;;;;;;;;;;;;5115683;28;19928;-50
2023/12/16 11:32:03;;;;;;;;;;;;;;;;;;5115395;28;19931;-52
2023/12/16 11:34:29;;;;;;;;;;;;;;;;;;5115187;28;19963;-51
2023/12/16 11:36:58;;;;;;;;;;;;;;;;;;5115088;28;19983;-51
2023/12/16 11:39:24;;;;;;;;;;;;;;;;;;5114916;28;19924;-52
2023/12/16 11:41:50;;;;;;;;;;;;;;;;;;5115000;28;19924;-52
2023/12/16 11:44:16;;;;;;;;;;;;;;;;;;5114999;28;19973;-52
2023/12/16 11:46:42;;;;;;;;;;;;;;;;;;5115165;28;19924;-52
2023/12/16 11:49:10;;;;;;;;;;;;;;;;;;5115062;28;19935;-50
2023/12/16 11:51:38;;;;;;;;;;;;;;;;;;5115109;28;19924;-52
2023/12/16 11:54:04;;;;;;;;;;;;;;;;;;5115205;27;19949;-51
2023/12/16 11:56:30;;;;;;;;;;;;;;;;;;5114775;28;19924;-51
2023/12/16 11:58:57;;;;;;;;;;;;;;;;;;5114829;28;19927;-52
2023/12/16 12:01:23;;;;;;;;;;;;;;;;;;5096104;28;20310;-52
2023/12/16 12:03:50;;;;;;;;;;;;;;;;;;5094302;28;20375;-52
2023/12/16 12:06:16;;;;;;;;;;;;;;;;;;5094245;28;20250;-52
2023/12/16 12:08:44;;;;;;;;;;;;;;;;;;5094033;28;19932;-52
2023/12/16 12:11:11;;;;;;;;;;;;;;;;;;5094190;28;19927;-52
2023/12/16 12:13:37;;;;;;;;;;;;;;;;;;5094233;28;19927;-53
2023/12/16 12:16:04;;;;;;;;;;;;;;;;;;5093701;28;19924;-50
2023/12/16 12:18:30;;;;;;;;;;;;;;;;;;5093907;28;19924;-50
2023/12/16 12:20:56;;;;;;;;;;;;;;;;;;5094071;28;19977;-50
2023/12/16 12:23:22;;;;;;;;;;;;;;;;;;5094116;28;20365;-50
2023/12/16 12:25:48;;;;;;;;;;;;;;;;;;5094048;28;19928;-50
2023/12/16 12:28:14;;;;;;;;;;;;;;;;;;5094095;28;19924;-52
2023/12/16 12:30:41;;;;;;;;;;;;;;;;;;5092987;28;20363;-51
2023/12/16 12:33:07;;;;;;;;;;;;;;;;;;5093722;28;19931;-51
2023/12/16 12:35:33;;;;;;;;;;;;;;;;;;5111764;28;19973;-52
2023/12/16 12:37:59;;;;;;;;;;;;;;;;;;5113679;28;20338;-52
2023/12/16 12:40:26;;;;;;;;;;;;;;;;;;5113804;28;20429;-52
2023/12/16 12:42:53;;;;;;;;;;;;;;;;;;5114014;28;19924;-49
2023/12/16 12:45:19;;;;;;;;;;;;;;;;;;5113812;28;19969;-49
2023/12/16 12:47:45;;;;;;;;;;;;;;;;;;5114063;28;20128;-50
2023/12/16 12:50:11;;;;;;;;;;;;;;;;;;5113982;28;19928;-48
2023/12/16 12:52:38;;;;;;;;;;;;;;;;;;5104412;28;20420;-52
2023/12/16 12:55:24;;;;;;;;;;;;;;;;;;5092291;28;19924;-52
2023/12/16 12:57:51;;;;;;;;;;;;;;;;;;5092721;28;19977;-52
2023/12/16 13:00:17;;;;;;;;;;;;;;;;;;5093263;28;19924;-52
2023/12/16 13:02:43;;;;;;;;;;;;;;;;;;5093341;28;20028;-52
2023/12/16 13:05:09;;;;;;;;;;;;;;;;;;5093235;28;20307;-52
2023/12/16 13:07:36;;;;;;;;;;;;;;;;;;5093341;28;19928;-52
2023/12/16 13:10:02;;;;;;;;;;;;;;;;;;5092998;28;20419;-51
2023/12/16 13:12:28;;;;;;;;;;;;;;;;;;5093281;28;19924;-52
2023/12/16 13:14:55;;;;;;;;;;;;;;;;;;5092955;28;19965;-51
2023/12/16 13:17:21;;;;;;;;;;;;;;;;;;5092961;28;19924;-50
2023/12/16 13:19:47;;;;;;;;;;;;;;;;;;5093158;28;19924;-52
2023/12/16 13:22:13;;;;;;;;;;;;;;;;;;5093364;28;20439;-52
2023/12/16 13:24:39;;;;;;;;;;;;;;;;;;5093169;28;20352;-52
2023/12/16 13:27:06;;;;;;;;;;;;;;;;;;5092951;28;19932;-52
2023/12/16 13:29:32;;;;;;;;;;;;;;;;;;5093008;28;19931;-52
2023/12/16 13:31:58;;;;;;;;;;;;;;;;;;5092795;28;19947;-52
2023/12/16 13:34:24;;;;;;;;;;;;;;;;;;5093314;28;20057;-52
2023/12/16 13:36:51;;;;;;;;;;;;;;;;;;5112687;28;19924;-50
2023/12/16 13:39:20;;;;;;;;;;;;;;;;;;5112899;28;19930;-52
2023/12/16 13:41:46;;;;;;;;;;;;;;;;;;5115042;28;20352;-52
2023/12/16 13:44:12;;;;;;;;;;;;;;;;;;5117362;28;19931;-52
2023/12/16 13:46:39;;;;;;;;;;;;;;;;;;5117594;28;19923;-52
2023/12/16 13:49:07;;;;;;;;;;;;;;;;;;5117469;28;20363;-52
2023/12/16 13:51:33;;;;;;;;;;;;;;;;;;5117249;28;19924;-52
2023/12/16 13:53:59;;;;;;;;;;;;;;;;;;5117228;28;19923;-52
2023/12/16 13:56:26;;;;;;;;;;;;;;;;;;5117091;28;19924;-52
2023/12/16 13:58:52;;;;;;;;;;;;;;;;;;5116916;28;19928;-50
2023/12/16 14:01:18;;;;;;;;;;;;;;;;;;5117137;28;20404;-52
2023/12/16 14:03:46;;;;;;;;;;;;;;;;;;5117202;28;20035;-52
2023/12/16 14:06:12;;;;;;;;;;;;;;;;;;5117280;28;19924;-52
2023/12/16 14:08:39;;;;;;;;;;;;;;;;;;5116740;28;20294;-51
2023/12/16 14:11:05;;;;;;;;;;;;;;;;;;5117077;28;19924;-52
2023/12/16 14:13:31;;;;;;;;;;;;;;;;;;5117073;28;19924;-52
2023/12/16 14:15:58;;;;;;;;;;;;;;;;;;5116646;28;19928;-52
2023/12/16 14:18:25;;;;;;;;;;;;;;;;;;5116693;28;19924;-52
2023/12/16 14:20:51;;;;;;;;;;;;;;;;;;5116821;28;19923;-52
2023/12/16 14:23:17;;;;;;;;;;;;;;;;;;5116896;28;19924;-51
2023/12/16 14:25:43;;;;;;;;;;;;;;;;;;5116651;28;19927;-52
2023/12/16 14:28:09;;;;;;;;;;;;;;;;;;5116776;28;19931;-51
2023/12/16 14:30:36;;;;;;;;;;;;;;;;;;5116734;28;19924;-52
2023/12/16 14:33:02;;;;;;;;;;;;;;;;;;5116354;28;20287;-52
2023/12/16 14:35:29;;;;;;;;;;;;;;;;;;5116626;28;19938;-52
2023/12/16 14:37:55;;;;;;;;;;;;;;;;;;5115554;28;20291;-52
2023/12/16 14:40:21;;;;;;;;;;;;;;;;;;5116249;28;19923;-52
2023/12/16 14:42:47;;;;;;;;;;;;;;;;;;5116405;28;19928;-51
2023/12/16 14:45:13;;;;;;;;;;;;;;;;;;5115885;28;20331;-52
2023/12/16 14:47:40;;;;;;;;;;;;;;;;;;5116041;28;19924;-51
2023/12/16 14:50:06;;;;;;;;;;;;;;;;;;5116169;28;20451;-50
2023/12/16 14:52:32;;;;;;;;;;;;;;;;;;5115846;28;19924;-51
2023/12/16 14:54:58;;;;;;;;;;;;;;;;;;5115499;28;19928;-50
2023/12/16 14:57:25;;;;;;;;;;;;;;;;;;5115748;28;20207;-51
2023/12/16 14:59:51;;;;;;;;;;;;;;;;;;5115848;27;19924;-51
2023/12/16 15:02:18;;;;;;;;;;;;;;;;;;5116200;27;20542;-51
2023/12/16 15:04:46;;;;;;;;;;;;;;;;;;5116167;28;19931;-51
2023/12/16 15:07:12;;;;;;;;;;;;;;;;;;5115992;28;19928;-51
2023/12/16 15:09:38;;;;;;;;;;;;;;;;;;5115868;28;19935;-51
2023/12/16 15:12:04;;;;;;;;;;;;;;;;;;5115743;28;19923;-51
2023/12/16 15:14:30;;;;;;;;;;;;;;;;;;5115447;28;20022;-51
2023/12/16 15:16:57;;;;;;;;;;;;;;;;;;5115631;28;20329;-50
2023/12/16 15:19:23;;;;;;;;;;;;;;;;;;5115561;28;20354;-49
2023/12/16 15:21:51;;;;;;;;;;;;;;;;;;5115411;28;20314;-51
2023/12/16 15:24:17;;;;;;;;;;;;;;;;;;5115580;28;19923;-51
2023/12/16 15:26:43;;;;;;;;;;;;;;;;;;5115352;27;19924;-51
2023/12/16 15:29:09;;;;;;;;;;;;;;;;;;5115544;28;19935;-51
2023/12/16 15:31:36;;;;;;;;;;;;;;;;;;5115472;28;19923;-51
2023/12/16 15:34:02;;;;;;;;;;;;;;;;;;5115520;28;19949;-51
2023/12/16 15:36:28;;;;;;;;;;;;;;;;;;5115292;28;19931;-51
2023/12/16 15:38:54;;;;;;;;;;;;;;;;;;5114130;28;19931;-51
2023/12/16 15:41:20;;;;;;;;;;;;;;;;;;5115274;28;19969;-51
2023/12/16 15:43:49;;;;;;;;;;;;;;;;;;5115251;28;19928;-51
2023/12/16 15:46:15;;;;;;;;;;;;;;;;;;5115216;28;19924;-51
2023/12/16 15:48:42;;;;;;;;;;;;;;;;;;5115123;28;19924;-51
2023/12/16 15:51:08;;;;;;;;;;;;;;;;;;5114943;28;20383;-51
2023/12/16 15:53:34;;;;;;;;;;;;;;;;;;5115059;28;19924;-51
2023/12/16 15:56:00;;;;;;;;;;;;;;;;;;5114938;28;19923;-51
2023/12/16 15:58:27;;;;;;;;;;;;;;;;;;5114558;28;19927;-51
2023/12/16 16:00:53;;;;;;;;;;;;;;;;;;5114760;28;19924;-50
2023/12/16 16:03:19;;;;;;;;;;;;;;;;;;5114779;28;20371;-51
2023/12/16 16:05:45;;;;;;;;;;;;;;;;;;5107186;28;20036;-51
2023/12/16 16:08:11;;;;;;;;;;;;;;;;;;5114940;28;19995;-51
2023/12/16 16:10:42;;;;;;;;;;;;;;;;;;5114548;28;19973;-49
2023/12/16 16:13:12;;;;;;;;;;;;;;;;;;5114613;28;19977;-51
2023/12/16 16:15:38;;;;;;;;;;;;;;;;;;5113783;28;20367;-50
2023/12/16 16:18:04;;;;;;;;;;;;;;;;;;5114046;28;19927;-51
2023/12/16 16:20:30;;;;;;;;;;;;;;;;;;5113871;28;19932;-50
2023/12/16 16:22:57;;;;;;;;;;;;;;;;;;5114293;28;19930;-51
2023/12/16 16:25:23;;;;;;;;;;;;;;;;;;5114374;28;20351;-51
2023/12/16 16:27:49;;;;;;;;;;;;;;;;;;5114604;28;20527;-51
2023/12/16 16:30:15;;;;;;;;;;;;;;;;;;5114344;28;19924;-51
2023/12/16 16:32:42;;;;;;;;;;;;;;;;;;5114384;28;19969;-50
2023/12/16 16:35:09;;;;;;;;;;;;;;;;;;5114260;28;19923;-50
2023/12/16 16:37:35;;;;;;;;;;;;;;;;;;5114004;28;19984;-51
2023/12/16 16:40:01;;;;;;;;;;;;;;;;;;5113490;28;19973;-50
2023/12/16 16:42:27;;;;;;;;;;;;;;;;;;5113835;28;19992;-51
2023/12/16 16:44:54;;;;;;;;;;;;;;;;;;5113795;28;20010;-51